sensor_id;sensor_type;location;lat;lon;timestamp;P1;durP1;ratioP1;P2;durP2;ratioP2
14316;SDS011;7242;50.858;6.586;2023-05-07T00:01:06;6.00;;;5.47;;
14316;SDS011;7242;50.858;6.586;2023-05-07T00:04:07;5.53;;;5.03;;
14316;SDS011;7242;50.858;6.586;2023-05-07T00:07:07;5.93;;;5.37;;
14316;SDS011;7242;50.858;6.586;2023-05-07T00:10:09;6.17;;;5.67;;
14316;SDS011;7242;50.858;6.586;2023-05-07T00:13:12;6.07;;;5.47;;
14316;SDS011;7242;50.858;6.586;2023-05-07T00:16:13;5.70;;;5.20;;
14316;SDS011;7242;50.858;6.586;2023-05-07T00:19:13;5.37;;;4.87;;
14316;SDS011;7242;50.858;6.586;2023-05-07T00:22:15;5.57;;;5.07;;
14316;SDS011;7242;50.858;6.586;2023-05-07T00:25:15;5.87;;;5.27;;
14316;SDS011;7242;50.858;6.586;2023-05-07T00:28:16;5.87;;;5.33;;
14316;SDS011;7242;50.858;6.586;2023-05-07T00:31:17;5.40;;;4.90;;
14316;SDS011;7242;50.858;6.586;2023-05-07T00:34:18;4.30;;;4.00;;
14316;SDS011;7242;50.858;6.586;2023-05-07T00:37:19;4.93;;;4.53;;
14316;SDS011;7242;50.858;6.586;2023-05-07T00:40:21;4.90;;;4.27;;
14316;SDS011;7242;50.858;6.586;2023-05-07T00:43:21;4.50;;;4.10;;
14316;SDS011;7242;50.858;6.586;2023-05-07T00:46:22;4.20;;;3.90;;
14316;SDS011;7242;50.858;6.586;2023-05-07T00:49:29;5.03;;;4.20;;
14316;SDS011;7242;50.858;6.586;2023-05-07T00:52:37;4.30;;;3.90;;
14316;SDS011;7242;50.858;6.586;2023-05-07T00:55:38;4.03;;;3.63;;
14316;SDS011;7242;50.858;6.586;2023-05-07T00:58:40;3.77;;;3.47;;
14316;SDS011;7242;50.858;6.586;2023-05-07T01:01:40;6.13;;;3.63;;
14316;SDS011;7242;50.858;6.586;2023-05-07T01:04:42;3.70;;;3.33;;
14316;SDS011;7242;50.858;6.586;2023-05-07T01:07:42;3.47;;;3.17;;
14316;SDS011;7242;50.858;6.586;2023-05-07T01:10:44;3.53;;;3.23;;
14316;SDS011;7242;50.858;6.586;2023-05-07T01:13:46;3.90;;;3.50;;
14316;SDS011;7242;50.858;6.586;2023-05-07T01:16:48;3.70;;;3.40;;
14316;SDS011;7242;50.858;6.586;2023-05-07T01:19:51;5.30;;;3.60;;
14316;SDS011;7242;50.858;6.586;2023-05-07T01:22:53;4.13;;;3.50;;
14316;SDS011;7242;50.858;6.586;2023-05-07T01:25:55;4.37;;;3.60;;
14316;SDS011;7242;50.858;6.586;2023-05-07T01:28:59;3.93;;;3.60;;
14316;SDS011;7242;50.858;6.586;2023-05-07T01:32:01;4.97;;;4.37;;
14316;SDS011;7242;50.858;6.586;2023-05-07T01:35:03;5.33;;;4.83;;
14316;SDS011;7242;50.858;6.586;2023-05-07T01:38:07;5.40;;;4.80;;
14316;SDS011;7242;50.858;6.586;2023-05-07T01:41:09;6.67;;;5.03;;
14316;SDS011;7242;50.858;6.586;2023-05-07T01:44:10;5.40;;;4.90;;
14316;SDS011;7242;50.858;6.586;2023-05-07T01:47:13;5.30;;;4.90;;
14316;SDS011;7242;50.858;6.586;2023-05-07T01:50:15;5.60;;;5.10;;
14316;SDS011;7242;50.858;6.586;2023-05-07T01:53:18;6.07;;;5.57;;
14316;SDS011;7242;50.858;6.586;2023-05-07T01:56:19;6.50;;;5.83;;
14316;SDS011;7242;50.858;6.586;2023-05-07T01:59:20;7.70;;;6.33;;
14316;SDS011;7242;50.858;6.586;2023-05-07T02:02:21;7.07;;;6.37;;
14316;SDS011;7242;50.858;6.586;2023-05-07T02:05:22;6.60;;;6.00;;
14316;SDS011;7242;50.858;6.586;2023-05-07T02:08:29;6.73;;;6.13;;
14316;SDS011;7242;50.858;6.586;2023-05-07T02:11:31;7.60;;;6.90;;
14316;SDS011;7242;50.858;6.586;2023-05-07T02:14:31;7.33;;;6.63;;
14316;SDS011;7242;50.858;6.586;2023-05-07T02:17:32;8.10;;;6.30;;
14316;SDS011;7242;50.858;6.586;2023-05-07T02:20:33;7.97;;;7.20;;
14316;SDS011;7242;50.858;6.586;2023-05-07T02:23:34;7.40;;;6.50;;
14316;SDS011;7242;50.858;6.586;2023-05-07T02:26:35;7.93;;;7.17;;
14316;SDS011;7242;50.858;6.586;2023-05-07T02:29:36;7.60;;;6.67;;
14316;SDS011;7242;50.858;6.586;2023-05-07T02:32:37;7.40;;;6.70;;
14316;SDS011;7242;50.858;6.586;2023-05-07T02:35:38;8.53;;;7.73;;
14316;SDS011;7242;50.858;6.586;2023-05-07T02:38:40;7.90;;;7.10;;
14316;SDS011;7242;50.858;6.586;2023-05-07T02:41:41;9.80;;;8.00;;
14316;SDS011;7242;50.858;6.586;2023-05-07T02:44:42;9.93;;;7.87;;
14316;SDS011;7242;50.858;6.586;2023-05-07T02:47:43;8.50;;;7.70;;
14316;SDS011;7242;50.858;6.586;2023-05-07T02:50:44;7.77;;;7.07;;
14316;SDS011;7242;50.858;6.586;2023-05-07T02:53:47;8.97;;;8.03;;
14316;SDS011;7242;50.858;6.586;2023-05-07T02:56:48;8.40;;;7.50;;
14316;SDS011;7242;50.858;6.586;2023-05-07T02:59:49;7.80;;;6.97;;
14316;SDS011;7242;50.858;6.586;2023-05-07T03:02:52;7.37;;;6.60;;
14316;SDS011;7242;50.858;6.586;2023-05-07T03:05:53;8.77;;;7.50;;
14316;SDS011;7242;50.858;6.586;2023-05-07T03:08:53;8.63;;;7.07;;
14316;SDS011;7242;50.858;6.586;2023-05-07T03:11:54;7.57;;;6.87;;
14316;SDS011;7242;50.858;6.586;2023-05-07T03:14:55;10.27;;;7.30;;
14316;SDS011;7242;50.858;6.586;2023-05-07T03:17:56;8.87;;;8.03;;
14316;SDS011;7242;50.858;6.586;2023-05-07T03:20:57;8.30;;;7.20;;
14316;SDS011;7242;50.858;6.586;2023-05-07T03:23:58;7.43;;;6.73;;
14316;SDS011;7242;50.858;6.586;2023-05-07T03:26:59;7.13;;;6.43;;
14316;SDS011;7242;50.858;6.586;2023-05-07T03:30:02;9.57;;;6.60;;
14316;SDS011;7242;50.858;6.586;2023-05-07T03:33:03;6.80;;;6.10;;
14316;SDS011;7242;50.858;6.586;2023-05-07T03:36:04;6.83;;;6.23;;
14316;SDS011;7242;50.858;6.586;2023-05-07T03:39:05;6.57;;;5.97;;
14316;SDS011;7242;50.858;6.586;2023-05-07T03:42:11;6.23;;;5.63;;
14316;SDS011;7242;50.858;6.586;2023-05-07T03:45:13;6.90;;;6.10;;
14316;SDS011;7242;50.858;6.586;2023-05-07T03:48:19;6.13;;;5.53;;
14316;SDS011;7242;50.858;6.586;2023-05-07T03:51:20;6.67;;;6.07;;
14316;SDS011;7242;50.858;6.586;2023-05-07T03:54:22;6.53;;;5.93;;
14316;SDS011;7242;50.858;6.586;2023-05-07T03:57:22;6.07;;;5.47;;
14316;SDS011;7242;50.858;6.586;2023-05-07T04:00:24;6.10;;;5.60;;
14316;SDS011;7242;50.858;6.586;2023-05-07T04:03:24;7.00;;;6.30;;
14316;SDS011;7242;50.858;6.586;2023-05-07T04:06:26;5.90;;;5.30;;
14316;SDS011;7242;50.858;6.586;2023-05-07T04:09:28;6.30;;;5.70;;
14316;SDS011;7242;50.858;6.586;2023-05-07T04:12:30;6.33;;;5.73;;
14316;SDS011;7242;50.858;6.586;2023-05-07T04:15:33;5.93;;;5.30;;
14316;SDS011;7242;50.858;6.586;2023-05-07T04:18:33;5.33;;;4.83;;
14316;SDS011;7242;50.858;6.586;2023-05-07T04:21:34;5.50;;;5.00;;
14316;SDS011;7242;50.858;6.586;2023-05-07T04:24:35;4.83;;;4.43;;
14316;SDS011;7242;50.858;6.586;2023-05-07T04:27:37;5.53;;;4.60;;
14316;SDS011;7242;50.858;6.586;2023-05-07T04:30:39;6.33;;;4.63;;
14316;SDS011;7242;50.858;6.586;2023-05-07T04:33:42;5.70;;;4.20;;
14316;SDS011;7242;50.858;6.586;2023-05-07T04:36:46;5.40;;;4.20;;
14316;SDS011;7242;50.858;6.586;2023-05-07T04:39:48;4.60;;;4.10;;
14316;SDS011;7242;50.858;6.586;2023-05-07T04:42:49;5.53;;;4.10;;
14316;SDS011;7242;50.858;6.586;2023-05-07T04:45:51;3.50;;;3.23;;
14316;SDS011;7242;50.858;6.586;2023-05-07T04:48:52;5.40;;;3.53;;
14316;SDS011;7242;50.858;6.586;2023-05-07T04:51:53;3.83;;;3.53;;
14316;SDS011;7242;50.858;6.586;2023-05-07T04:54:58;4.00;;;3.40;;
14316;SDS011;7242;50.858;6.586;2023-05-07T04:58:07;3.73;;;3.43;;
14316;SDS011;7242;50.858;6.586;2023-05-07T05:01:09;4.17;;;3.50;;
14316;SDS011;7242;50.858;6.586;2023-05-07T05:04:11;3.50;;;3.20;;
14316;SDS011;7242;50.858;6.586;2023-05-07T05:07:14;3.60;;;3.27;;
14316;SDS011;7242;50.858;6.586;2023-05-07T05:10:15;4.20;;;3.80;;
14316;SDS011;7242;50.858;6.586;2023-05-07T05:13:17;4.00;;;3.60;;
14316;SDS011;7242;50.858;6.586;2023-05-07T05:16:19;6.07;;;5.10;;
14316;SDS011;7242;50.858;6.586;2023-05-07T05:19:20;6.93;;;5.80;;
14316;SDS011;7242;50.858;6.586;2023-05-07T05:22:20;6.90;;;6.20;;
14316;SDS011;7242;50.858;6.586;2023-05-07T05:25:21;8.33;;;6.70;;
14316;SDS011;7242;50.858;6.586;2023-05-07T05:28:23;6.93;;;6.23;;
14316;SDS011;7242;50.858;6.586;2023-05-07T05:31:23;7.27;;;6.13;;
14316;SDS011;7242;50.858;6.586;2023-05-07T05:34:25;6.50;;;5.90;;
14316;SDS011;7242;50.858;6.586;2023-05-07T05:37:26;7.30;;;6.10;;
14316;SDS011;7242;50.858;6.586;2023-05-07T05:40:28;7.77;;;6.80;;
14316;SDS011;7242;50.858;6.586;2023-05-07T05:43:30;8.40;;;6.17;;
14316;SDS011;7242;50.858;6.586;2023-05-07T05:46:32;8.00;;;6.43;;
14316;SDS011;7242;50.858;6.586;2023-05-07T05:49:32;7.83;;;6.80;;
14316;SDS011;7242;50.858;6.586;2023-05-07T05:52:34;8.00;;;6.83;;
14316;SDS011;7242;50.858;6.586;2023-05-07T05:55:36;7.57;;;5.83;;
14316;SDS011;7242;50.858;6.586;2023-05-07T05:58:38;6.80;;;6.10;;
14316;SDS011;7242;50.858;6.586;2023-05-07T06:01:41;6.80;;;6.10;;
14316;SDS011;7242;50.858;6.586;2023-05-07T06:04:41;6.37;;;5.77;;
14316;SDS011;7242;50.858;6.586;2023-05-07T06:07:45;6.20;;;5.60;;
14316;SDS011;7242;50.858;6.586;2023-05-07T06:10:46;8.03;;;5.73;;
14316;SDS011;7242;50.858;6.586;2023-05-07T06:13:47;7.33;;;6.50;;
14316;SDS011;7242;50.858;6.586;2023-05-07T06:16:48;6.63;;;5.90;;
14316;SDS011;7242;50.858;6.586;2023-05-07T06:19:49;7.40;;;5.73;;
14316;SDS011;7242;50.858;6.586;2023-05-07T06:22:52;5.70;;;5.20;;
14316;SDS011;7242;50.858;6.586;2023-05-07T06:25:53;5.20;;;4.70;;
14316;SDS011;7242;50.858;6.586;2023-05-07T06:28:59;6.17;;;5.13;;
14316;SDS011;7242;50.858;6.586;2023-05-07T06:32:09;7.27;;;5.30;;
14316;SDS011;7242;50.858;6.586;2023-05-07T06:35:12;5.23;;;4.73;;
14316;SDS011;7242;50.858;6.586;2023-05-07T06:38:14;5.37;;;4.60;;
14316;SDS011;7242;50.858;6.586;2023-05-07T06:41:16;4.67;;;4.27;;
14316;SDS011;7242;50.858;6.586;2023-05-07T06:44:18;4.70;;;4.20;;
14316;SDS011;7242;50.858;6.586;2023-05-07T06:47:27;6.37;;;4.40;;
14316;SDS011;7242;50.858;6.586;2023-05-07T06:50:29;5.13;;;4.17;;
14316;SDS011;7242;50.858;6.586;2023-05-07T06:53:31;4.17;;;3.77;;
14316;SDS011;7242;50.858;6.586;2023-05-07T06:56:34;4.40;;;4.00;;
14316;SDS011;7242;50.858;6.586;2023-05-07T06:59:36;4.97;;;3.70;;
14316;SDS011;7242;50.858;6.586;2023-05-07T07:02:37;4.57;;;3.20;;
14316;SDS011;7242;50.858;6.586;2023-05-07T07:05:40;3.47;;;2.90;;
14316;SDS011;7242;50.858;6.586;2023-05-07T07:08:41;5.77;;;3.50;;
14316;SDS011;7242;50.858;6.586;2023-05-07T07:11:45;6.27;;;3.87;;
14316;SDS011;7242;50.858;6.586;2023-05-07T07:14:46;4.27;;;3.50;;
14316;SDS011;7242;50.858;6.586;2023-05-07T07:17:48;5.13;;;3.73;;
14316;SDS011;7242;50.858;6.586;2023-05-07T07:20:50;4.23;;;3.70;;
14316;SDS011;7242;50.858;6.586;2023-05-07T07:23:51;4.93;;;3.40;;
14316;SDS011;7242;50.858;6.586;2023-05-07T07:26:53;6.33;;;3.93;;
14316;SDS011;7242;50.858;6.586;2023-05-07T07:29:56;4.30;;;3.90;;
14316;SDS011;7242;50.858;6.586;2023-05-07T07:32:57;4.60;;;3.70;;
14316;SDS011;7242;50.858;6.586;2023-05-07T07:36:04;5.03;;;4.23;;
14316;SDS011;7242;50.858;6.586;2023-05-07T07:39:06;4.57;;;3.53;;
14316;SDS011;7242;50.858;6.586;2023-05-07T07:42:07;3.60;;;3.30;;
14316;SDS011;7242;50.858;6.586;2023-05-07T07:45:08;5.07;;;3.47;;
14316;SDS011;7242;50.858;6.586;2023-05-07T07:48:14;4.80;;;3.83;;
14316;SDS011;7242;50.858;6.586;2023-05-07T07:51:15;6.57;;;3.60;;
14316;SDS011;7242;50.858;6.586;2023-05-07T07:54:16;4.40;;;3.10;;
14316;SDS011;7242;50.858;6.586;2023-05-07T07:57:17;2.77;;;2.40;;
14316;SDS011;7242;50.858;6.586;2023-05-07T08:00:18;4.20;;;3.30;;
14316;SDS011;7242;50.858;6.586;2023-05-07T08:03:24;3.10;;;2.90;;
14316;SDS011;7242;50.858;6.586;2023-05-07T08:06:31;4.03;;;2.83;;
14316;SDS011;7242;50.858;6.586;2023-05-07T08:09:32;3.73;;;2.30;;
14316;SDS011;7242;50.858;6.586;2023-05-07T08:12:34;3.40;;;2.43;;
14316;SDS011;7242;50.858;6.586;2023-05-07T08:15:35;3.33;;;2.33;;
14316;SDS011;7242;50.858;6.586;2023-05-07T08:18:37;2.80;;;2.43;;
14316;SDS011;7242;50.858;6.586;2023-05-07T08:21:38;3.10;;;2.40;;
14316;SDS011;7242;50.858;6.586;2023-05-07T08:24:40;3.50;;;2.50;;
14316;SDS011;7242;50.858;6.586;2023-05-07T08:27:41;2.60;;;2.40;;
14316;SDS011;7242;50.858;6.586;2023-05-07T08:30:42;2.27;;;2.07;;
14316;SDS011;7242;50.858;6.586;2023-05-07T08:33:43;4.33;;;2.10;;
14316;SDS011;7242;50.858;6.586;2023-05-07T08:36:44;3.20;;;2.20;;
14316;SDS011;7242;50.858;6.586;2023-05-07T08:39:49;2.87;;;1.93;;
14316;SDS011;7242;50.858;6.586;2023-05-07T08:42:54;4.10;;;2.80;;
14316;SDS011;7242;50.858;6.586;2023-05-07T08:45:57;2.67;;;2.43;;
14316;SDS011;7242;50.858;6.586;2023-05-07T08:49:03;4.37;;;2.53;;
14316;SDS011;7242;50.858;6.586;2023-05-07T08:52:04;4.77;;;2.53;;
14316;SDS011;7242;50.858;6.586;2023-05-07T08:55:06;2.13;;;1.93;;
14316;SDS011;7242;50.858;6.586;2023-05-07T08:58:08;3.13;;;1.90;;
14316;SDS011;7242;50.858;6.586;2023-05-07T09:01:13;3.17;;;2.00;;
14316;SDS011;7242;50.858;6.586;2023-05-07T09:04:16;3.47;;;2.30;;
14316;SDS011;7242;50.858;6.586;2023-05-07T09:07:19;3.47;;;2.17;;
14316;SDS011;7242;50.858;6.586;2023-05-07T09:10:20;3.50;;;2.07;;
14316;SDS011;7242;50.858;6.586;2023-05-07T09:13:22;4.27;;;1.57;;
14316;SDS011;7242;50.858;6.586;2023-05-07T09:16:24;2.13;;;1.43;;
14316;SDS011;7242;50.858;6.586;2023-05-07T09:19:26;2.77;;;1.30;;
14316;SDS011;7242;50.858;6.586;2023-05-07T09:22:31;2.63;;;1.67;;
14316;SDS011;7242;50.858;6.586;2023-05-07T09:25:37;2.97;;;2.07;;
14316;SDS011;7242;50.858;6.586;2023-05-07T09:28:44;3.17;;;2.00;;
14316;SDS011;7242;50.858;6.586;2023-05-07T09:31:47;3.27;;;2.10;;
14316;SDS011;7242;50.858;6.586;2023-05-07T09:34:50;3.00;;;1.70;;
14316;SDS011;7242;50.858;6.586;2023-05-07T09:37:57;2.47;;;2.23;;
14316;SDS011;7242;50.858;6.586;2023-05-07T09:41:05;3.30;;;1.97;;
14316;SDS011;7242;50.858;6.586;2023-05-07T09:44:28;2.83;;;2.10;;
14316;SDS011;7242;50.858;6.586;2023-05-07T09:47:29;2.10;;;1.90;;
14316;SDS011;7242;50.858;6.586;2023-05-07T09:50:33;2.13;;;1.83;;
14316;SDS011;7242;50.858;6.586;2023-05-07T09:53:36;1.70;;;1.60;;
14316;SDS011;7242;50.858;6.586;2023-05-07T09:56:39;2.33;;;1.50;;
14316;SDS011;7242;50.858;6.586;2023-05-07T09:59:44;2.73;;;2.07;;
14316;SDS011;7242;50.858;6.586;2023-05-07T10:02:51;2.60;;;1.80;;
14316;SDS011;7242;50.858;6.586;2023-05-07T10:05:58;2.80;;;2.10;;
14316;SDS011;7242;50.858;6.586;2023-05-07T10:08:59;2.00;;;1.90;;
14316;SDS011;7242;50.858;6.586;2023-05-07T10:12:01;3.37;;;1.90;;
14316;SDS011;7242;50.858;6.586;2023-05-07T10:15:04;5.33;;;2.70;;
14316;SDS011;7242;50.858;6.586;2023-05-07T10:18:11;2.60;;;1.90;;
14316;SDS011;7242;50.858;6.586;2023-05-07T10:21:17;3.87;;;2.30;;
14316;SDS011;7242;50.858;6.586;2023-05-07T10:24:27;2.13;;;1.93;;
14316;SDS011;7242;50.858;6.586;2023-05-07T10:27:33;3.27;;;2.70;;
14316;SDS011;7242;50.858;6.586;2023-05-07T10:33:56;4.83;;;2.70;;
14316;SDS011;7242;50.858;6.586;2023-05-07T10:36:59;2.70;;;2.47;;
14316;SDS011;7242;50.858;6.586;2023-05-07T10:40:02;3.83;;;2.40;;
14316;SDS011;7242;50.858;6.586;2023-05-07T10:43:05;2.70;;;2.33;;
14316;SDS011;7242;50.858;6.586;2023-05-07T10:46:20;3.17;;;2.50;;
14316;SDS011;7242;50.858;6.586;2023-05-07T10:49:31;4.03;;;2.40;;
14316;SDS011;7242;50.858;6.586;2023-05-07T10:52:37;3.17;;;2.23;;
14316;SDS011;7242;50.858;6.586;2023-05-07T10:55:42;3.87;;;2.30;;
14316;SDS011;7242;50.858;6.586;2023-05-07T10:58:51;1.73;;;1.60;;
14316;SDS011;7242;50.858;6.586;2023-05-07T11:01:57;2.33;;;2.00;;
14316;SDS011;7242;50.858;6.586;2023-05-07T11:05:21;5.07;;;2.00;;
14316;SDS011;7242;50.858;6.586;2023-05-07T11:08:52;3.13;;;2.17;;
14316;SDS011;7242;50.858;6.586;2023-05-07T11:11:55;3.37;;;2.00;;
14316;SDS011;7242;50.858;6.586;2023-05-07T11:15:41;2.27;;;1.93;;
14316;SDS011;7242;50.858;6.586;2023-05-07T11:18:51;2.03;;;1.83;;
14316;SDS011;7242;50.858;6.586;2023-05-07T11:22:01;1.93;;;1.50;;
14316;SDS011;7242;50.858;6.586;2023-05-07T11:25:19;2.50;;;1.50;;
14316;SDS011;7242;50.858;6.586;2023-05-07T11:28:23;1.73;;;1.60;;
14316;SDS011;7242;50.858;6.586;2023-05-07T11:31:34;2.43;;;1.70;;
14316;SDS011;7242;50.858;6.586;2023-05-07T11:34:35;3.87;;;1.73;;
14316;SDS011;7242;50.858;6.586;2023-05-07T11:37:36;1.70;;;1.60;;
14316;SDS011;7242;50.858;6.586;2023-05-07T11:40:48;1.70;;;1.60;;
14316;SDS011;7242;50.858;6.586;2023-05-07T11:43:54;2.97;;;1.60;;
14316;SDS011;7242;50.858;6.586;2023-05-07T11:46:58;2.30;;;1.77;;
14316;SDS011;7242;50.858;6.586;2023-05-07T11:50:03;3.67;;;1.83;;
14316;SDS011;7242;50.858;6.586;2023-05-07T11:53:08;3.17;;;1.47;;
14316;SDS011;7242;50.858;6.586;2023-05-07T11:56:10;1.50;;;1.40;;
14316;SDS011;7242;50.858;6.586;2023-05-07T11:59:16;1.93;;;1.60;;
14316;SDS011;7242;50.858;6.586;2023-05-07T12:02:17;2.20;;;1.80;;
14316;SDS011;7242;50.858;6.586;2023-05-07T12:05:18;2.90;;;1.80;;
14316;SDS011;7242;50.858;6.586;2023-05-07T12:08:19;2.00;;;1.73;;
14316;SDS011;7242;50.858;6.586;2023-05-07T12:11:22;2.23;;;2.03;;
14316;SDS011;7242;50.858;6.586;2023-05-07T12:14:26;3.73;;;2.23;;
14316;SDS011;7242;50.858;6.586;2023-05-07T12:17:29;3.60;;;2.20;;
14316;SDS011;7242;50.858;6.586;2023-05-07T12:20:30;6.13;;;2.77;;
14316;SDS011;7242;50.858;6.586;2023-05-07T12:23:30;7.27;;;3.20;;
14316;SDS011;7242;50.858;6.586;2023-05-07T12:26:31;4.33;;;2.93;;
14316;SDS011;7242;50.858;6.586;2023-05-07T12:29:32;5.57;;;3.53;;
14316;SDS011;7242;50.858;6.586;2023-05-07T12:32:33;5.13;;;3.73;;
14316;SDS011;7242;50.858;6.586;2023-05-07T12:35:37;6.83;;;4.20;;
14316;SDS011;7242;50.858;6.586;2023-05-07T12:38:40;7.20;;;4.47;;
14316;SDS011;7242;50.858;6.586;2023-05-07T12:41:56;7.43;;;4.87;;
14316;SDS011;7242;50.858;6.586;2023-05-07T12:45:10;8.83;;;4.30;;
14316;SDS011;7242;50.858;6.586;2023-05-07T12:48:12;5.87;;;3.87;;
14316;SDS011;7242;50.858;6.586;2023-05-07T12:51:12;5.17;;;3.57;;
14316;SDS011;7242;50.858;6.586;2023-05-07T12:54:27;4.40;;;3.17;;
14316;SDS011;7242;50.858;6.586;2023-05-07T12:57:29;6.53;;;3.30;;
14316;SDS011;7242;50.858;6.586;2023-05-07T13:00:36;6.67;;;4.40;;
14316;SDS011;7242;50.858;6.586;2023-05-07T13:03:38;6.70;;;4.50;;
14316;SDS011;7242;50.858;6.586;2023-05-07T13:06:38;4.80;;;3.77;;
14316;SDS011;7242;50.858;6.586;2023-05-07T13:09:39;4.83;;;3.57;;
14316;SDS011;7242;50.858;6.586;2023-05-07T13:12:40;5.50;;;3.20;;
14316;SDS011;7242;50.858;6.586;2023-05-07T13:15:40;5.13;;;3.20;;
14316;SDS011;7242;50.858;6.586;2023-05-07T13:18:41;7.47;;;3.47;;
14316;SDS011;7242;50.858;6.586;2023-05-07T13:21:43;5.40;;;3.20;;
14316;SDS011;7242;50.858;6.586;2023-05-07T13:24:44;4.00;;;3.40;;
14316;SDS011;7242;50.858;6.586;2023-05-07T13:27:44;4.57;;;3.10;;
14316;SDS011;7242;50.858;6.586;2023-05-07T13:30:46;3.93;;;2.87;;
14316;SDS011;7242;50.858;6.586;2023-05-07T13:33:47;3.77;;;3.37;;
14316;SDS011;7242;50.858;6.586;2023-05-07T13:36:48;6.10;;;5.40;;
14316;SDS011;7242;50.858;6.586;2023-05-07T13:39:48;6.00;;;3.93;;
14316;SDS011;7242;50.858;6.586;2023-05-07T13:42:49;5.07;;;3.60;;
14316;SDS011;7242;50.858;6.586;2023-05-07T13:45:50;4.47;;;3.00;;
14316;SDS011;7242;50.858;6.586;2023-05-07T13:48:51;3.00;;;2.70;;
14316;SDS011;7242;50.858;6.586;2023-05-07T13:51:52;3.13;;;2.30;;
14316;SDS011;7242;50.858;6.586;2023-05-07T13:54:53;3.60;;;1.90;;
14316;SDS011;7242;50.858;6.586;2023-05-07T13:57:58;3.03;;;2.00;;
14316;SDS011;7242;50.858;6.586;2023-05-07T14:01:00;3.83;;;1.80;;
14316;SDS011;7242;50.858;6.586;2023-05-07T14:04:00;3.00;;;1.47;;
14316;SDS011;7242;50.858;6.586;2023-05-07T14:07:01;3.13;;;1.40;;
14316;SDS011;7242;50.858;6.586;2023-05-07T14:10:02;2.83;;;1.70;;
14316;SDS011;7242;50.858;6.586;2023-05-07T14:13:03;2.87;;;1.60;;
14316;SDS011;7242;50.858;6.586;2023-05-07T14:16:04;2.13;;;1.40;;
14316;SDS011;7242;50.858;6.586;2023-05-07T14:19:05;1.50;;;1.40;;
14316;SDS011;7242;50.858;6.586;2023-05-07T14:22:05;1.50;;;1.40;;
14316;SDS011;7242;50.858;6.586;2023-05-07T14:25:07;1.33;;;1.23;;
14316;SDS011;7242;50.858;6.586;2023-05-07T14:28:09;2.97;;;1.27;;
14316;SDS011;7242;50.858;6.586;2023-05-07T14:31:10;2.17;;;1.30;;
14316;SDS011;7242;50.858;6.586;2023-05-07T14:34:10;1.83;;;1.17;;
14316;SDS011;7242;50.858;6.586;2023-05-07T14:37:12;2.47;;;1.23;;
14316;SDS011;7242;50.858;6.586;2023-05-07T14:40:13;1.40;;;1.20;;
14316;SDS011;7242;50.858;6.586;2023-05-07T14:43:15;2.87;;;1.70;;
14316;SDS011;7242;50.858;6.586;2023-05-07T14:46:16;4.03;;;1.50;;
14316;SDS011;7242;50.858;6.586;2023-05-07T14:49:18;2.33;;;1.10;;
14316;SDS011;7242;50.858;6.586;2023-05-07T14:52:18;4.27;;;1.30;;
14316;SDS011;7242;50.858;6.586;2023-05-07T14:55:19;3.57;;;1.43;;
14316;SDS011;7242;50.858;6.586;2023-05-07T14:58:20;2.13;;;1.10;;
14316;SDS011;7242;50.858;6.586;2023-05-07T15:01:20;1.73;;;1.20;;
14316;SDS011;7242;50.858;6.586;2023-05-07T15:04:21;1.93;;;1.27;;
14316;SDS011;7242;50.858;6.586;2023-05-07T15:07:23;3.17;;;1.50;;
14316;SDS011;7242;50.858;6.586;2023-05-07T15:10:25;1.57;;;1.30;;
14316;SDS011;7242;50.858;6.586;2023-05-07T15:13:26;2.53;;;1.20;;
14316;SDS011;7242;50.858;6.586;2023-05-07T15:16:26;1.53;;;1.30;;
14316;SDS011;7242;50.858;6.586;2023-05-07T15:19:27;3.30;;;1.40;;
14316;SDS011;7242;50.858;6.586;2023-05-07T15:22:29;2.87;;;1.40;;
14316;SDS011;7242;50.858;6.586;2023-05-07T15:25:30;5.10;;;1.57;;
14316;SDS011;7242;50.858;6.586;2023-05-07T15:28:33;3.73;;;1.80;;
14316;SDS011;7242;50.858;6.586;2023-05-07T15:31:34;2.87;;;1.60;;
14316;SDS011;7242;50.858;6.586;2023-05-07T15:34:37;3.83;;;1.87;;
14316;SDS011;7242;50.858;6.586;2023-05-07T15:37:37;2.03;;;1.60;;
14316;SDS011;7242;50.858;6.586;2023-05-07T15:40:38;4.17;;;1.50;;
14316;SDS011;7242;50.858;6.586;2023-05-07T15:43:46;4.87;;;2.27;;
14316;SDS011;7242;50.858;6.586;2023-05-07T15:46:49;6.37;;;2.40;;
14316;SDS011;7242;50.858;6.586;2023-05-07T15:49:49;2.17;;;1.80;;
14316;SDS011;7242;50.858;6.586;2023-05-07T15:52:50;2.37;;;1.70;;
14316;SDS011;7242;50.858;6.586;2023-05-07T15:55:51;1.93;;;1.53;;
14316;SDS011;7242;50.858;6.586;2023-05-07T15:58:52;2.17;;;1.90;;
14316;SDS011;7242;50.858;6.586;2023-05-07T16:01:53;2.03;;;1.83;;
14316;SDS011;7242;50.858;6.586;2023-05-07T16:04:54;2.73;;;2.37;;
14316;SDS011;7242;50.858;6.586;2023-05-07T16:07:55;2.93;;;2.60;;
14316;SDS011;7242;50.858;6.586;2023-05-07T16:10:56;2.50;;;2.30;;
14316;SDS011;7242;50.858;6.586;2023-05-07T16:13:57;3.03;;;2.20;;
14316;SDS011;7242;50.858;6.586;2023-05-07T16:17:00;2.33;;;1.97;;
14316;SDS011;7242;50.858;6.586;2023-05-07T16:20:01;2.43;;;2.23;;
14316;SDS011;7242;50.858;6.586;2023-05-07T16:23:05;2.87;;;2.40;;
14316;SDS011;7242;50.858;6.586;2023-05-07T16:26:05;3.23;;;2.20;;
14316;SDS011;7242;50.858;6.586;2023-05-07T16:29:07;3.30;;;2.20;;
14316;SDS011;7242;50.858;6.586;2023-05-07T16:32:07;4.37;;;2.13;;
14316;SDS011;7242;50.858;6.586;2023-05-07T16:35:08;2.73;;;2.20;;
14316;SDS011;7242;50.858;6.586;2023-05-07T16:38:09;3.87;;;3.00;;
14316;SDS011;7242;50.858;6.586;2023-05-07T16:41:10;5.37;;;3.03;;
14316;SDS011;7242;50.858;6.586;2023-05-07T16:44:12;4.57;;;2.70;;
14316;SDS011;7242;50.858;6.586;2023-05-07T16:47:13;3.30;;;2.40;;
14316;SDS011;7242;50.858;6.586;2023-05-07T16:50:14;4.30;;;2.20;;
14316;SDS011;7242;50.858;6.586;2023-05-07T16:53:15;3.60;;;2.50;;
14316;SDS011;7242;50.858;6.586;2023-05-07T16:56:16;3.87;;;2.67;;
14316;SDS011;7242;50.858;6.586;2023-05-07T16:59:17;4.03;;;2.60;;
14316;SDS011;7242;50.858;6.586;2023-05-07T17:02:18;2.13;;;1.93;;
14316;SDS011;7242;50.858;6.586;2023-05-07T17:05:19;2.20;;;2.00;;
14316;SDS011;7242;50.858;6.586;2023-05-07T17:08:20;3.17;;;2.20;;
14316;SDS011;7242;50.858;6.586;2023-05-07T17:11:20;3.33;;;2.20;;
14316;SDS011;7242;50.858;6.586;2023-05-07T17:14:22;3.87;;;2.90;;
14316;SDS011;7242;50.858;6.586;2023-05-07T17:17:23;4.20;;;2.70;;
14316;SDS011;7242;50.858;6.586;2023-05-07T17:20:24;3.53;;;2.10;;
14316;SDS011;7242;50.858;6.586;2023-05-07T17:23:24;2.37;;;2.17;;
14316;SDS011;7242;50.858;6.586;2023-05-07T17:26:25;4.13;;;2.23;;
14316;SDS011;7242;50.858;6.586;2023-05-07T17:29:28;3.17;;;2.87;;
14316;SDS011;7242;50.858;6.586;2023-05-07T17:32:29;3.37;;;2.63;;
14316;SDS011;7242;50.858;6.586;2023-05-07T17:35:31;5.47;;;2.90;;
14316;SDS011;7242;50.858;6.586;2023-05-07T17:38:33;3.37;;;2.33;;
14316;SDS011;7242;50.858;6.586;2023-05-07T17:41:37;4.07;;;2.40;;
14316;SDS011;7242;50.858;6.586;2023-05-07T17:44:38;4.37;;;3.00;;
14316;SDS011;7242;50.858;6.586;2023-05-07T17:47:39;4.27;;;3.00;;
14316;SDS011;7242;50.858;6.586;2023-05-07T17:50:40;7.80;;;2.80;;
14316;SDS011;7242;50.858;6.586;2023-05-07T17:53:41;4.03;;;2.90;;
14316;SDS011;7242;50.858;6.586;2023-05-07T17:56:41;4.87;;;2.50;;
14316;SDS011;7242;50.858;6.586;2023-05-07T17:59:42;3.57;;;2.40;;
14316;SDS011;7242;50.858;6.586;2023-05-07T18:02:43;4.93;;;2.80;;
14316;SDS011;7242;50.858;6.586;2023-05-07T18:05:43;3.63;;;2.73;;
14316;SDS011;7242;50.858;6.586;2023-05-07T18:08:44;4.53;;;2.70;;
14316;SDS011;7242;50.858;6.586;2023-05-07T18:11:45;4.43;;;2.57;;
14316;SDS011;7242;50.858;6.586;2023-05-07T18:14:46;7.30;;;3.20;;
14316;SDS011;7242;50.858;6.586;2023-05-07T18:17:48;4.67;;;2.90;;
14316;SDS011;7242;50.858;6.586;2023-05-07T18:20:49;5.70;;;4.90;;
14316;SDS011;7242;50.858;6.586;2023-05-07T18:23:50;5.77;;;3.80;;
14316;SDS011;7242;50.858;6.586;2023-05-07T18:26:50;7.33;;;5.40;;
14316;SDS011;7242;50.858;6.586;2023-05-07T18:29:51;4.33;;;3.93;;
14316;SDS011;7242;50.858;6.586;2023-05-07T18:32:52;5.43;;;3.87;;
14316;SDS011;7242;50.858;6.586;2023-05-07T18:35:53;6.57;;;3.50;;
14316;SDS011;7242;50.858;6.586;2023-05-07T18:38:54;4.07;;;3.30;;